Aviation Digital Data Service (ADDS)

Output produced by METARs form (0756 UTC 23 October 2014)
found at http://aviationweather.gov/adds/metars/
 
KAUG 230530Z 2306/2406 03017G27KT 5SM -DZ BR OVC007 WS020/06045KT 
     FM231000 03017G30KT 2SM RA BR OVC004 WS020/06050KT 
     FM231600 03015G28KT 5SM -RA BR OVC007 
     FM232000 02015G28KT P6SM -SHRA OVC012